createdAt,value
2023-04-13T00:00:13.803Z,2.83
2023-04-13T00:03:19.915Z,2.42
2023-04-13T00:06:24.346Z,5.63
2023-04-13T00:09:31.063Z,3.53
2023-04-13T00:12:37.125Z,3.53
2023-04-13T00:15:44.565Z,8.27
2023-04-13T00:18:48.496Z,3.28
2023-04-13T00:21:54.588Z,3.88
2023-04-13T00:24:59.389Z,2.90
2023-04-13T00:28:08.521Z,2.22
2023-04-13T00:31:12.435Z,5.13
2023-04-13T00:34:25.567Z,8.13
2023-04-13T00:37:32.181Z,5.90
2023-04-13T00:40:39.133Z,10.15
2023-04-13T00:43:45.405Z,4.63
2023-04-13T00:46:53.949Z,2.75
2023-04-13T00:49:59.189Z,4.65
2023-04-13T00:53:08.853Z,2.85
2023-04-13T00:56:15.068Z,2.25
2023-04-13T00:59:24.986Z,5.40
2023-04-13T01:02:29.801Z,5.80
2023-04-13T01:05:51.218Z,2.72
2023-04-13T01:09:02.766Z,4.13
2023-04-13T01:12:15.424Z,5.30
2023-04-13T01:15:22.769Z,3.47
2023-04-13T01:18:29.934Z,2.75
2023-04-13T01:21:35.727Z,5.55
2023-04-13T01:24:53.194Z,2.33
2023-04-13T01:28:02.693Z,2.17
2023-04-13T01:31:11.129Z,3.15
2023-04-13T01:34:17.151Z,2.03
2023-04-13T01:37:25.247Z,1.77
2023-04-13T01:40:34.178Z,1.15
2023-04-13T01:43:42.452Z,1.95
2023-04-13T01:46:50.285Z,4.82
2023-04-13T01:50:29.725Z,2.72
2023-04-13T01:53:55.151Z,2.35
2023-04-13T01:57:02.807Z,0.98
2023-04-13T02:00:13.787Z,2.15
2023-04-13T02:03:22.046Z,2.22
2023-04-13T02:06:26.047Z,2.05
2023-04-13T02:09:32.725Z,4.22
2023-04-13T02:12:37.033Z,5.50
2023-04-13T02:15:48.023Z,1.27
2023-04-13T02:18:51.952Z,4.30
2023-04-13T02:21:57.906Z,3.88
2023-04-13T02:28:08.624Z,5.05
2023-04-13T02:31:16.157Z,5.13
2023-04-13T02:34:22.686Z,2.75
2023-04-13T02:37:27.559Z,3.78
2023-04-13T02:40:33.660Z,9.27
2023-04-13T02:43:37.952Z,4.35
2023-04-13T02:46:46.055Z,3.78
2023-04-13T02:49:53.732Z,3.28
2023-04-13T02:53:07.314Z,2.75
2023-04-13T02:56:13.758Z,5.03
2023-04-13T02:59:19.744Z,1.25
2023-04-13T03:05:32.681Z,2.63
2023-04-13T03:08:37.457Z,4.05
2023-04-13T03:12:02.425Z,12.20
2023-04-13T03:15:10.447Z,9.50
2023-04-13T03:18:19.648Z,3.03
2023-04-13T03:21:24.111Z,2.67
2023-04-13T03:24:44.404Z,2.80
2023-04-13T03:27:53.697Z,2.70
2023-04-13T03:31:02.061Z,4.65
2023-04-13T03:34:10.916Z,8.02
2023-04-13T03:37:17.853Z,3.08
2023-04-13T03:40:22.372Z,6.38
2023-04-13T03:43:31.382Z,1.42
2023-04-13T03:46:40.856Z,2.95
2023-04-13T03:50:01.008Z,4.15
2023-04-13T03:53:07.086Z,1.35
2023-04-13T03:56:13.725Z,2.15
2023-04-13T03:59:17.842Z,1.65
2023-04-13T04:02:24.386Z,2.08
2023-04-13T04:05:30.464Z,5.75
2023-04-13T04:08:41.191Z,2.03
2023-04-13T04:11:55.993Z,4.32
2023-04-13T04:15:13.855Z,2.92
2023-04-13T04:18:19.514Z,3.25
2023-04-13T04:21:33.879Z,3.75
2023-04-13T04:24:41.824Z,3.35
2023-04-13T04:27:49.399Z,3.38
2023-04-13T04:30:55.417Z,3.40
2023-04-13T04:34:02.877Z,6.70
2023-04-13T04:37:20.224Z,3.55
2023-04-13T04:40:37.520Z,2.45
2023-04-13T04:43:45.757Z,3.97
2023-04-13T04:46:53.582Z,7.88
2023-04-13T04:49:58.083Z,4.43
2023-04-13T04:53:06.410Z,4.25
2023-04-13T04:56:11.406Z,6.10
2023-04-13T04:59:24.297Z,4.15
2023-04-13T05:02:35.735Z,2.83
2023-04-13T05:05:42.750Z,3.45
2023-04-13T05:08:56.726Z,4.10
2023-04-13T05:12:03.986Z,4.25
2023-04-13T05:15:09.866Z,9.70
2023-04-13T05:18:16.860Z,3.75
2023-04-13T05:21:21.007Z,7.97
2023-04-13T05:24:35.840Z,5.18
2023-04-13T05:27:45.540Z,2.38
2023-04-13T05:30:52.019Z,2.20
2023-04-13T05:33:56.372Z,4.57
2023-04-13T05:37:02.827Z,6.05
2023-04-13T05:40:14.522Z,4.95
2023-04-13T05:43:23.638Z,8.30
2023-04-13T05:46:29.398Z,3.65
2023-04-13T05:49:38.281Z,3.25
2023-04-13T05:52:42.795Z,7.03
2023-04-13T05:55:50.784Z,5.50
2023-04-13T05:58:54.822Z,4.22
2023-04-13T06:02:04.780Z,6.60
2023-04-13T06:05:09.642Z,3.90
2023-04-13T06:08:16.407Z,8.57
2023-04-13T06:11:22.498Z,2.42
2023-04-13T06:14:28.467Z,2.28
2023-04-13T06:20:38.490Z,7.75
2023-04-13T06:26:58.820Z,6.30
2023-04-13T06:30:03.456Z,11.75
2023-04-13T06:33:11.779Z,3.70
2023-04-13T06:36:16.417Z,12.40
2023-04-13T06:39:22.495Z,11.52
2023-04-13T06:42:36.386Z,8.95
2023-04-13T06:46:01.960Z,12.20
2023-04-13T06:49:09.270Z,7.15
2023-04-13T06:52:17.790Z,7.13
2023-04-13T06:55:21.989Z,11.10
2023-04-13T06:58:30.788Z,7.13
2023-04-13T07:01:38.349Z,10.77
2023-04-13T07:04:45.545Z,9.82
2023-04-13T07:07:49.629Z,10.68
2023-04-13T07:10:57.545Z,8.65
2023-04-13T07:14:12.558Z,11.13
2023-04-13T07:17:18.772Z,10.73
2023-04-13T07:20:22.857Z,12.65
2023-04-13T07:23:30.064Z,10.43
2023-04-13T07:26:35.045Z,9.77
2023-04-13T07:29:43.262Z,7.28
2023-04-13T07:32:52.205Z,8.13
2023-04-13T07:35:59.350Z,9.10
2023-04-13T07:39:08.413Z,9.60
2023-04-13T07:42:16.243Z,10.95
2023-04-13T07:45:27.224Z,10.30
2023-04-13T07:48:33.219Z,4.63
2023-04-13T07:51:43.387Z,8.43
2023-04-13T07:54:50.721Z,10.20
2023-04-13T07:57:55.109Z,11.13
2023-04-13T08:01:03.355Z,9.00
2023-04-13T08:04:07.690Z,8.85
2023-04-13T08:07:15.060Z,9.25
2023-04-13T08:10:22.651Z,16.70
2023-04-13T08:13:30.933Z,9.60
2023-04-13T08:16:37.254Z,6.22
2023-04-13T08:19:46.057Z,6.68
2023-04-13T08:22:51.657Z,4.10
2023-04-13T08:26:01.975Z,5.70
2023-04-13T08:29:05.908Z,1.90
2023-04-13T08:32:14.063Z,3.45
2023-04-13T08:35:18.254Z,4.53
2023-04-13T08:38:24.537Z,2.00
2023-04-13T08:41:29.341Z,4.10
2023-04-13T08:44:39.738Z,2.95
2023-04-13T08:47:47.005Z,3.20
2023-04-13T08:50:58.079Z,4.65
2023-04-13T08:54:03.869Z,2.45
2023-04-13T08:57:17.029Z,4.57
2023-04-13T09:00:23.377Z,6.50
2023-04-13T09:03:37.412Z,3.08
2023-04-13T09:06:44.266Z,3.13
2023-04-13T09:09:53.406Z,2.00
2023-04-13T09:12:57.499Z,3.80
2023-04-13T09:16:04.275Z,2.90
2023-04-13T09:19:31.166Z,4.88
2023-04-13T09:22:37.081Z,4.03
2023-04-13T09:28:50.855Z,8.05
2023-04-13T09:31:54.742Z,3.92
2023-04-13T09:35:04.756Z,4.22
2023-04-13T09:38:11.198Z,12.02
2023-04-13T09:41:17.130Z,5.22
2023-04-13T09:47:38.291Z,7.97
2023-04-13T09:50:44.181Z,12.98
2023-04-13T09:53:50.510Z,7.45
2023-04-13T09:56:55.833Z,5.53
2023-04-13T10:00:06.670Z,8.57
2023-04-13T10:03:18.501Z,7.18
2023-04-13T10:06:26.912Z,13.60
2023-04-13T10:09:30.886Z,4.63
2023-04-13T10:12:38.393Z,8.73
2023-04-13T10:16:04.082Z,10.48
2023-04-13T10:19:13.945Z,2.72
2023-04-13T10:22:23.361Z,12.52
2023-04-13T10:25:32.988Z,9.98
2023-04-13T10:28:44.544Z,6.97
2023-04-13T10:31:53.181Z,14.07
2023-04-13T10:34:57.447Z,12.07
2023-04-13T10:38:05.606Z,7.88
2023-04-13T10:41:09.533Z,8.02
2023-04-13T10:44:15.612Z,9.65
2023-04-13T10:50:27.559Z,6.30
2023-04-13T10:53:34.615Z,10.90
2023-04-13T10:56:40.608Z,10.98
2023-04-13T11:03:06.017Z,9.15
2023-04-13T11:06:10.587Z,12.77
2023-04-13T11:09:23.796Z,11.30
2023-04-13T11:12:27.672Z,13.40
2023-04-13T11:15:33.851Z,7.43
2023-04-13T11:18:37.746Z,8.05
2023-04-13T11:21:45.640Z,9.05
2023-04-13T11:24:52.443Z,8.75
2023-04-13T11:27:59.726Z,9.95
2023-04-13T11:31:04.130Z,17.02
2023-04-13T11:34:11.193Z,2.72
2023-04-13T11:37:15.569Z,12.65
2023-04-13T11:40:26.790Z,12.52
2023-04-13T11:43:30.879Z,8.77
2023-04-13T11:46:37.905Z,10.30
2023-04-13T11:49:47.320Z,8.57
2023-04-13T11:52:56.082Z,11.32
2023-04-13T11:56:01.939Z,12.20
2023-04-13T11:59:10.033Z,10.18
2023-04-13T12:02:22.013Z,6.32
2023-04-13T12:05:31.697Z,5.57
2023-04-13T12:08:37.687Z,3.30
2023-04-13T12:11:50.202Z,12.88
2023-04-13T12:15:12.168Z,9.27
2023-04-13T12:18:28.195Z,15.43
2023-04-13T12:21:33.905Z,7.90
2023-04-13T12:24:40.555Z,15.63
2023-04-13T12:27:47.729Z,13.55
2023-04-13T12:30:53.735Z,10.07
2023-04-13T12:37:03.627Z,6.55
2023-04-13T12:40:11.676Z,8.35
2023-04-13T12:43:19.536Z,9.57
2023-04-13T12:46:24.539Z,13.65
2023-04-13T12:49:30.619Z,9.88
2023-04-13T12:55:40.379Z,5.60
2023-04-13T13:01:51.986Z,7.88
2023-04-13T13:08:02.909Z,7.20
2023-04-13T13:11:07.729Z,10.57
2023-04-13T13:14:15.872Z,7.60
2023-04-13T13:17:19.801Z,7.60
2023-04-13T13:20:25.739Z,18.60
2023-04-13T13:26:51.701Z,16.80
2023-04-13T13:30:03.648Z,6.55
2023-04-13T13:33:09.824Z,7.97
2023-04-13T13:36:15.173Z,10.27
2023-04-13T13:39:22.445Z,6.70
2023-04-13T13:42:27.174Z,6.65
2023-04-13T13:45:38.507Z,9.48
2023-04-13T13:48:42.577Z,10.20
2023-04-13T13:52:08.882Z,12.90
2023-04-13T13:55:22.474Z,6.78
2023-04-13T13:58:28.465Z,15.07
2023-04-13T14:04:40.289Z,10.00
2023-04-13T14:07:45.605Z,12.23
2023-04-13T14:10:51.634Z,16.80
2023-04-13T14:17:03.405Z,6.90
2023-04-13T14:20:09.848Z,12.27
2023-04-13T14:23:16.200Z,11.70
2023-04-13T14:26:20.224Z,15.63
2023-04-13T14:29:26.594Z,12.13
2023-04-13T14:32:32.954Z,9.77
2023-04-13T14:35:40.445Z,7.63
2023-04-13T14:38:44.367Z,5.88
2023-04-13T14:41:50.299Z,11.95
2023-04-13T14:48:02.012Z,5.70
2023-04-13T14:51:06.583Z,11.68
2023-04-13T14:54:12.539Z,9.02
2023-04-13T15:00:37.919Z,8.60
2023-04-13T15:03:44.771Z,16.15
2023-04-13T15:06:53.648Z,9.68
2023-04-13T15:09:58.227Z,5.93
2023-04-13T15:13:05.805Z,13.35
2023-04-13T15:16:10.118Z,14.30
2023-04-13T15:19:18.073Z,8.75
2023-04-13T15:22:21.989Z,8.57
2023-04-13T15:25:28.145Z,7.57
2023-04-13T15:28:32.133Z,8.15
2023-04-13T15:31:39.419Z,9.65
2023-04-13T15:34:45.307Z,5.53
2023-04-13T15:37:51.651Z,7.13
2023-04-13T15:40:55.562Z,12.27
2023-04-13T15:44:02.794Z,13.60
2023-04-13T15:47:09.474Z,14.40
2023-04-13T15:50:18.519Z,12.13
2023-04-13T15:53:22.809Z,9.00
2023-04-13T15:56:29.898Z,7.70
2023-04-13T15:59:34.193Z,8.68
2023-04-13T16:02:40.355Z,7.25
2023-04-13T16:05:46.301Z,9.95
2023-04-13T16:08:53.808Z,3.95
2023-04-13T16:11:57.780Z,7.80
2023-04-13T16:15:05.645Z,6.07
2023-04-13T16:18:09.547Z,8.13
2023-04-13T16:21:19.478Z,7.45
2023-04-13T16:24:23.475Z,7.55
2023-04-13T16:27:29.584Z,7.32
2023-04-13T16:30:34.034Z,9.55
2023-04-13T16:33:39.966Z,14.77
2023-04-13T16:36:45.765Z,6.63
2023-04-13T16:39:52.325Z,10.82
2023-04-13T16:42:58.497Z,11.57
2023-04-13T16:46:10.475Z,11.63
2023-04-13T16:49:14.835Z,5.97
2023-04-13T16:52:22.901Z,8.35
2023-04-13T16:55:27.868Z,9.15
2023-04-13T16:58:33.986Z,7.07
2023-04-13T17:04:48.619Z,6.53
2023-04-13T17:11:01.819Z,3.58
2023-04-13T17:14:05.912Z,7.30
2023-04-13T17:17:12.064Z,4.25
2023-04-13T17:20:17.199Z,4.18
2023-04-13T17:23:25.363Z,9.10
2023-04-13T17:26:29.243Z,6.30
2023-04-13T17:29:37.402Z,3.55
2023-04-13T17:32:41.584Z,7.57
2023-04-13T17:35:47.617Z,8.48
2023-04-13T17:41:59.156Z,8.20
2023-04-13T17:48:10.509Z,8.90
2023-04-13T17:51:14.425Z,5.53
2023-04-13T17:54:22.413Z,11.02
2023-04-13T17:57:26.354Z,5.60
2023-04-13T18:00:32.265Z,5.25
2023-04-13T18:06:42.807Z,5.30
2023-04-13T18:09:48.705Z,6.63
2023-04-13T18:12:54.624Z,10.50
2023-04-13T18:19:04.591Z,11.30
2023-04-13T18:22:08.619Z,11.18
2023-04-13T18:25:16.581Z,7.78
2023-04-13T18:28:20.677Z,8.48
2023-04-13T18:31:26.676Z,1.90
2023-04-13T18:34:33.345Z,4.55
2023-04-13T18:37:40.769Z,6.63
2023-04-13T18:40:48.263Z,8.75
2023-04-13T18:43:54.166Z,7.05
2023-04-13T18:46:58.169Z,8.25
2023-04-13T18:50:05.393Z,5.28
2023-04-13T18:53:09.282Z,4.60
2023-04-13T18:56:17.228Z,10.57
2023-04-13T18:59:21.146Z,10.07
2023-04-13T19:02:27.494Z,4.50
2023-04-13T19:05:32.926Z,2.33
2023-04-13T19:08:39.231Z,11.25
2023-04-13T19:11:53.572Z,5.60
2023-04-13T19:15:00.696Z,3.95
2023-04-13T19:18:05.615Z,4.85
2023-04-13T19:21:11.755Z,6.18
2023-04-13T19:24:15.722Z,11.35
2023-04-13T19:27:23.792Z,7.85
2023-04-13T19:30:27.683Z,12.38
2023-04-13T19:33:34.953Z,12.07
2023-04-13T19:36:39.016Z,10.05
2023-04-13T19:39:45.307Z,17.13
2023-04-13T19:42:51.206Z,7.55
2023-04-13T19:45:57.210Z,9.50
2023-04-13T19:49:01.813Z,12.35
2023-04-13T19:52:09.910Z,9.70
2023-04-13T19:55:15.043Z,10.75
2023-04-13T19:58:22.892Z,8.88
2023-04-13T20:01:29.681Z,7.03
2023-04-13T20:04:36.496Z,10.82
2023-04-13T20:07:40.547Z,21.38
2023-04-13T20:10:46.671Z,21.58
2023-04-13T20:13:52.546Z,19.60
2023-04-13T20:17:00.666Z,20.80
2023-04-13T20:20:05.941Z,15.32
2023-04-13T20:23:12.324Z,17.85
2023-04-13T20:26:16.245Z,21.98
2023-04-13T20:29:26.353Z,23.17
2023-04-13T20:32:30.445Z,31.13
2023-04-13T20:35:36.454Z,24.52
2023-04-13T20:41:50.374Z,23.70
2023-04-13T20:44:58.084Z,35.33
2023-04-13T20:48:48.584Z,27.77
2023-04-13T20:51:29.245Z,24.13
2023-04-13T20:54:35.181Z,23.25
2023-04-13T21:00:49.184Z,14.93
2023-04-13T21:03:53.665Z,9.35
2023-04-13T21:07:01.575Z,11.35
2023-04-13T21:10:06.285Z,9.88
2023-04-13T21:13:12.804Z,11.10
2023-04-13T21:16:18.757Z,10.27
2023-04-13T21:19:25.063Z,13.82
2023-04-13T21:22:29.216Z,11.35
2023-04-13T21:25:35.242Z,10.27
2023-04-13T21:28:39.182Z,12.95
2023-04-13T21:31:47.372Z,13.82
2023-04-13T21:34:51.294Z,16.02
2023-04-13T21:37:57.196Z,18.48
2023-04-13T21:44:13.571Z,14.45
2023-04-13T21:47:28.328Z,10.07
2023-04-13T21:50:34.346Z,13.02
2023-04-13T21:53:39.214Z,12.82
2023-04-13T21:56:45.353Z,14.60
2023-04-13T21:59:49.299Z,6.57
2023-04-13T22:02:57.220Z,8.85
2023-04-13T22:06:01.190Z,5.70
2023-04-13T22:09:07.302Z,4.90
2023-04-13T22:12:13.614Z,6.65
2023-04-13T22:15:19.910Z,6.53
2023-04-13T22:18:26.198Z,4.20
2023-04-13T22:21:32.110Z,10.52
2023-04-13T22:27:41.823Z,13.98
2023-04-13T22:33:54.857Z,6.55
2023-04-13T22:36:58.741Z,4.75
2023-04-13T22:40:05.572Z,8.25
2023-04-13T22:43:09.525Z,9.85
2023-04-13T22:46:15.579Z,3.28
2023-04-13T22:49:21.484Z,5.72
2023-04-13T22:52:27.685Z,2.97
2023-04-13T22:55:31.694Z,6.05
2023-04-13T22:58:37.609Z,5.10
2023-04-13T23:04:49.653Z,3.28
2023-04-13T23:07:53.662Z,7.03
2023-04-13T23:11:07.740Z,4.05
2023-04-13T23:14:11.889Z,4.45
2023-04-13T23:17:17.820Z,4.60
2023-04-13T23:23:29.360Z,5.20
2023-04-13T23:26:33.297Z,13.45
2023-04-13T23:29:39.294Z,5.85
2023-04-13T23:35:55.497Z,7.03
2023-04-13T23:38:59.542Z,7.55
2023-04-13T23:42:06.105Z,4.57
2023-04-13T23:45:10.752Z,6.43
2023-04-13T23:48:16.659Z,5.90
2023-04-13T23:51:23.882Z,5.82
2023-04-13T23:54:29.763Z,11.48
